createdAt,value
2023-02-11T00:00:15.812Z,68.56
2023-02-11T00:01:14.928Z,69.71
2023-02-11T00:02:14.922Z,70.18
2023-02-11T00:03:14.888Z,69.95
2023-02-11T00:04:14.879Z,69.42
2023-02-11T00:05:14.870Z,69.02
2023-02-11T00:06:14.870Z,69.02
2023-02-11T00:07:14.837Z,69.19
2023-02-11T00:08:14.878Z,69.19
2023-02-11T00:09:14.831Z,71.21
2023-02-11T00:10:14.849Z,71.33
2023-02-11T00:11:14.811Z,72.39
2023-02-11T00:12:14.802Z,72.07
2023-02-11T00:13:14.883Z,70.96
2023-02-11T00:14:14.776Z,69.13
2023-02-11T00:15:14.756Z,67.78
2023-02-11T00:16:14.828Z,67.40
2023-02-11T00:17:14.751Z,67.45
2023-02-11T00:18:14.733Z,68.79
2023-02-11T00:19:14.751Z,69.60
2023-02-11T00:20:14.728Z,70.36
2023-02-11T00:21:14.715Z,70.36
2023-02-11T00:22:14.710Z,69.83
2023-02-11T00:23:14.691Z,69.25
2023-02-11T00:24:14.685Z,69.02
2023-02-11T00:25:14.706Z,68.17
2023-02-11T00:26:14.653Z,67.07
2023-02-11T00:27:14.653Z,66.75
2023-02-11T00:28:14.692Z,66.91
2023-02-11T00:29:14.665Z,66.86
2023-02-11T00:30:14.617Z,68.45
2023-02-11T00:31:14.827Z,69.25
2023-02-11T00:32:14.583Z,69.83
2023-02-11T00:33:14.582Z,70.90
2023-02-11T00:34:14.585Z,70.78
2023-02-11T00:35:14.587Z,70.72
2023-02-11T00:36:14.561Z,69.48
2023-02-11T00:37:14.613Z,69.08
2023-02-11T00:38:14.642Z,68.39
2023-02-11T00:39:14.598Z,66.59
2023-02-11T00:40:14.588Z,65.90
2023-02-11T00:41:14.586Z,66.06
2023-02-11T00:42:14.512Z,66.16
2023-02-11T00:43:14.510Z,66.16
2023-02-11T00:44:14.574Z,65.74
2023-02-11T00:45:14.464Z,65.59
2023-02-11T00:46:14.556Z,65.74
2023-02-11T00:47:14.576Z,66.43
2023-02-11T00:48:14.439Z,67.07
2023-02-11T00:49:14.450Z,66.80
2023-02-11T00:50:14.538Z,66.86
2023-02-11T00:51:14.413Z,66.27
2023-02-11T00:52:14.400Z,66.11
2023-02-11T00:53:14.454Z,65.64
2023-02-11T00:54:14.415Z,65.59
2023-02-11T00:55:14.387Z,64.82
2023-02-11T00:56:14.479Z,63.83
2023-02-11T00:57:14.358Z,62.20
2023-02-11T00:58:14.349Z,60.93
2023-02-11T00:59:14.349Z,60.00
2023-02-11T01:00:14.416Z,59.02
2023-02-11T01:01:14.427Z,59.62
2023-02-11T01:02:14.980Z,60.70
2023-02-11T01:03:14.339Z,63.29
2023-02-11T01:04:14.393Z,67.45
2023-02-11T01:05:14.328Z,73.60
2023-02-11T01:06:14.388Z,81.23
2023-02-11T01:07:14.334Z,92.43
2023-02-11T01:08:14.278Z,101.81
2023-02-11T01:09:14.285Z,114.42
2023-02-11T01:10:14.396Z,126.81
2023-02-11T01:11:14.268Z,137.40
2023-02-11T01:12:14.259Z,147.38
2023-02-11T01:13:14.314Z,155.66
2023-02-11T01:14:14.220Z,163.95
2023-02-11T01:15:14.319Z,169.82
2023-02-11T01:16:14.292Z,175.00
2023-02-11T01:17:14.271Z,178.96
2023-02-11T01:18:14.193Z,182.49
2023-02-11T01:19:14.189Z,185.34
2023-02-11T01:20:14.197Z,184.93
2023-02-11T01:21:14.163Z,185.96
2023-02-11T01:22:14.314Z,185.13
2023-02-11T01:23:14.148Z,185.75
2023-02-11T01:24:14.109Z,185.24
2023-02-11T01:25:14.101Z,190.30
2023-02-11T01:26:14.156Z,192.09
2023-02-11T01:27:14.098Z,194.61
2023-02-11T01:28:14.187Z,195.31
2023-02-11T01:29:14.079Z,197.79
2023-02-11T01:30:14.050Z,203.45
2023-02-11T01:31:14.178Z,209.18
2023-02-11T01:32:14.213Z,217.24
2023-02-11T01:33:14.054Z,224.25
2023-02-11T01:34:14.050Z,232.88
2023-02-11T01:35:14.003Z,237.27
2023-02-11T01:36:14.005Z,244.00
2023-02-11T01:37:14.048Z,249.40
2023-02-11T01:38:13.980Z,253.66
2023-02-11T01:39:14.018Z,256.44
2023-02-11T01:40:13.982Z,255.04
2023-02-11T01:41:13.956Z,252.48
2023-02-11T01:42:13.958Z,245.46
2023-02-11T01:43:13.997Z,234.21
2023-02-11T01:44:13.950Z,234.88
2023-02-11T01:45:13.914Z,233.87
2023-02-11T01:46:13.989Z,236.07
2023-02-11T01:47:13.929Z,234.88
2023-02-11T01:48:13.889Z,234.04
2023-02-11T01:49:13.920Z,231.88
2023-02-11T01:50:13.921Z,229.60
2023-02-11T01:51:13.879Z,226.58
2023-02-11T01:52:13.889Z,223.18
2023-02-11T01:53:13.860Z,216.52
2023-02-11T01:54:13.856Z,211.76
2023-02-11T01:55:13.825Z,206.15
2023-02-11T01:56:13.833Z,198.39
2023-02-11T01:57:13.857Z,193.23
2023-02-11T01:58:13.801Z,188.88
2023-02-11T01:59:13.954Z,185.96
2023-02-11T02:00:13.792Z,181.30
2023-02-11T02:01:13.893Z,180.12
2023-02-11T02:02:13.790Z,180.90
2023-02-11T02:03:13.832Z,175.55
2023-02-11T02:04:13.740Z,170.51
2023-02-11T02:05:13.729Z,167.25
2023-02-11T02:06:13.737Z,161.41
2023-02-11T02:07:13.723Z,151.83
2023-02-11T02:08:13.715Z,143.20
2023-02-11T02:09:13.766Z,132.89
2023-02-11T02:10:13.707Z,127.88
2023-02-11T02:11:13.686Z,123.88
2023-02-11T02:12:13.668Z,122.42
2023-02-11T02:13:13.689Z,119.78
2023-02-11T02:14:13.670Z,118.41
2023-02-11T02:15:13.635Z,119.78
2023-02-11T02:16:13.796Z,120.64
2023-02-11T02:17:13.659Z,124.72
2023-02-11T02:18:13.637Z,128.68
2023-02-11T02:19:13.685Z,129.38
2023-02-11T02:20:13.582Z,128.78
2023-02-11T02:21:13.647Z,129.68
2023-02-11T02:22:13.602Z,128.08
2023-02-11T02:23:13.593Z,128.38
2023-02-11T02:24:14.298Z,131.42
2023-02-11T02:25:13.571Z,138.54
2023-02-11T02:26:13.531Z,144.44
2023-02-11T02:27:13.582Z,154.08
2023-02-11T02:28:13.606Z,158.63
2023-02-11T02:29:13.538Z,156.99
2023-02-11T02:30:13.522Z,151.00
2023-02-11T02:31:13.564Z,146.99
2023-02-11T02:32:13.541Z,147.78
2023-02-11T02:34:13.500Z,140.29
2023-02-11T02:35:13.457Z,134.72
2023-02-11T02:36:13.467Z,128.58
2023-02-11T02:37:13.486Z,122.78
2023-02-11T02:38:13.422Z,115.61
2023-02-11T02:39:13.417Z,109.02
2023-02-11T02:40:13.480Z,103.26
2023-02-11T02:41:13.438Z,100.03
2023-02-11T02:42:13.464Z,96.38
2023-02-11T02:43:13.418Z,94.14
2023-02-11T02:44:13.443Z,95.29
2023-02-11T02:45:13.355Z,95.73
2023-02-11T02:46:13.397Z,95.51
2023-02-11T02:47:13.366Z,94.74
2023-02-11T02:48:13.330Z,94.64
2023-02-11T02:49:13.357Z,94.21
2023-02-11T02:50:13.432Z,93.05
2023-02-11T02:51:13.292Z,92.32
2023-02-11T02:52:13.311Z,91.31
2023-02-11T02:53:13.311Z,91.51
2023-02-11T02:54:13.267Z,94.64
2023-02-11T02:55:13.265Z,97.51
2023-02-11T02:56:13.310Z,103.97
2023-02-11T02:57:13.244Z,112.79
2023-02-11T02:58:13.238Z,122.88
2023-02-11T02:59:13.244Z,134.29
2023-02-11T03:00:13.254Z,148.17
2023-02-11T03:01:13.418Z,162.04
2023-02-11T03:02:13.253Z,177.43
2023-02-11T03:03:13.232Z,190.97
2023-02-11T03:04:13.181Z,206.93
2023-02-11T03:05:13.277Z,221.81
2023-02-11T03:06:13.179Z,235.22
2023-02-11T03:07:13.216Z,246.76
2023-02-11T03:08:13.151Z,256.24
2023-02-11T03:09:13.126Z,257.45
2023-02-11T03:10:13.209Z,252.09
2023-02-11T03:11:13.141Z,246.39
2023-02-11T03:12:13.142Z,242.37
2023-02-11T03:13:13.115Z,240.59
2023-02-11T03:14:13.139Z,240.59
2023-02-11T03:15:13.171Z,245.65
2023-02-11T03:16:13.170Z,247.14
2023-02-11T03:17:13.045Z,255.04
2023-02-11T03:18:13.070Z,264.75
2023-02-11T03:19:13.063Z,280.18
2023-02-11T03:20:13.044Z,296.44
2023-02-11T03:21:13.033Z,318.08
2023-02-11T03:22:13.003Z,348.98
2023-02-11T03:23:13.061Z,386.92
2023-02-11T03:24:12.991Z,429.16
2023-02-11T03:25:13.012Z,475.54
2023-02-11T03:26:13.010Z,521.05
2023-02-11T03:27:12.989Z,554.54
2023-02-11T03:28:12.983Z,583.77
2023-02-11T03:29:12.958Z,611.16
2023-02-11T03:30:12.939Z,640.63
2023-02-11T03:31:13.028Z,655.16
2023-02-11T03:32:13.053Z,654.52
2023-02-11T03:33:12.926Z,644.99
2023-02-11T03:34:12.947Z,629.70
2023-02-11T03:35:12.919Z,615.12
2023-02-11T03:36:12.908Z,597.42
2023-02-11T03:37:12.895Z,576.18
2023-02-11T03:38:12.902Z,555.93
2023-02-11T03:39:12.844Z,537.05
2023-02-11T03:40:12.948Z,533.60
2023-02-11T03:41:12.836Z,539.23
2023-02-11T03:42:12.832Z,569.76
2023-02-11T03:43:12.948Z,579.70
2023-02-11T03:44:12.901Z,586.87
2023-02-11T03:45:12.809Z,599.04
2023-02-11T03:46:12.876Z,631.50
2023-02-11T03:47:12.801Z,648.13
2023-02-11T03:48:12.870Z,657.11
2023-02-11T03:49:12.756Z,662.35
2023-02-11T03:50:12.814Z,666.33
2023-02-11T03:51:12.806Z,654.52
2023-02-11T03:52:12.779Z,640.02
2023-02-11T03:53:12.717Z,615.70
2023-02-11T03:54:12.711Z,595.28
2023-02-11T03:55:12.774Z,575.68
2023-02-11T03:56:12.737Z,565.39
2023-02-11T03:57:12.715Z,545.88
2023-02-11T03:58:12.684Z,531.89
2023-02-11T03:59:12.661Z,509.85
2023-02-11T04:00:12.746Z,500.25
2023-02-11T04:01:12.806Z,496.14
2023-02-11T04:02:12.655Z,504.05
2023-02-11T04:03:12.737Z,514.99
2023-02-11T04:04:12.691Z,530.62
2023-02-11T04:05:12.606Z,534.46
2023-02-11T04:06:12.688Z,523.51
2023-02-11T04:07:12.631Z,520.23
2023-02-11T04:08:12.597Z,521.87
2023-02-11T04:09:12.600Z,514.59
2023-02-11T04:10:12.567Z,500.25
2023-02-11T04:11:12.618Z,502.52
2023-02-11T04:12:12.558Z,515.39
2023-02-11T04:13:12.639Z,531.89
2023-02-11T04:14:12.530Z,540.11
2023-02-11T04:15:12.538Z,541.87
2023-02-11T04:16:12.534Z,551.32
2023-02-11T04:17:12.509Z,554.54
2023-02-11T04:18:12.513Z,560.62
2023-02-11T04:19:12.511Z,558.27
2023-02-11T04:20:12.546Z,561.09
2023-02-11T04:21:12.467Z,555.93
2023-02-11T04:22:12.572Z,537.92
2023-02-11T04:23:12.493Z,512.21
2023-02-11T04:24:12.448Z,502.14
2023-02-11T04:25:12.441Z,483.50
2023-02-11T04:26:12.549Z,475.54
2023-02-11T04:27:12.419Z,479.32
2023-02-11T04:28:12.442Z,480.36
2023-02-11T04:29:12.492Z,485.27
2023-02-11T04:30:12.444Z,487.41
2023-02-11T04:31:12.380Z,485.27
2023-02-11T04:32:12.491Z,481.40
2023-02-11T04:33:12.362Z,481.75
2023-02-11T04:34:12.376Z,478.97
2023-02-11T04:35:12.349Z,475.89
2023-02-11T04:36:12.335Z,472.16
2023-02-11T04:37:12.347Z,468.83
2023-02-11T04:38:12.437Z,462.31
2023-02-11T04:39:12.450Z,436.20
2023-02-11T04:40:12.286Z,418.61
2023-02-11T04:41:12.292Z,407.82
2023-02-11T04:42:12.270Z,399.96
2023-02-11T04:43:12.372Z,398.76
2023-02-11T04:44:12.345Z,389.64
2023-02-11T04:45:12.236Z,381.36
2023-02-11T04:46:12.409Z,370.75
2023-02-11T04:47:12.211Z,367.00
2023-02-11T04:48:12.202Z,360.52
2023-02-11T04:49:12.380Z,350.85
2023-02-11T04:50:12.199Z,340.97
2023-02-11T04:51:12.188Z,339.90
2023-02-11T04:52:12.315Z,336.75
2023-02-11T04:53:12.174Z,340.26
2023-02-11T04:54:12.157Z,346.39
2023-02-11T04:55:12.278Z,360.52
2023-02-11T04:56:12.141Z,354.66
2023-02-11T04:57:12.118Z,335.03
2023-02-11T04:58:12.161Z,313.80
2023-02-11T04:59:12.132Z,299.98
2023-02-11T05:00:12.091Z,283.34
2023-02-11T05:01:12.138Z,278.51
2023-02-11T05:02:12.197Z,272.93
2023-02-11T05:03:12.061Z,271.57
2023-02-11T05:04:12.137Z,262.83
2023-02-11T05:05:12.061Z,261.57
2023-02-11T05:06:12.139Z,253.46
2023-02-11T05:07:12.060Z,256.04
2023-02-11T05:08:12.016Z,259.49
2023-02-11T05:09:12.100Z,272.02
2023-02-11T05:10:12.019Z,281.39
2023-02-11T05:11:11.996Z,284.32
2023-02-11T05:12:11.967Z,285.82
2023-02-11T05:13:12.018Z,292.20
2023-02-11T05:14:12.041Z,296.98
2023-02-11T05:15:11.946Z,300.81
2023-02-11T05:16:12.131Z,308.47
2023-02-11T05:17:12.033Z,323.43
2023-02-11T05:18:12.018Z,336.06
2023-02-11T05:19:12.046Z,347.49
2023-02-11T05:20:11.911Z,363.33
2023-02-11T05:21:11.928Z,375.86
2023-02-11T05:22:11.910Z,390.55
2023-02-11T05:23:11.872Z,394.97
2023-02-11T05:24:11.915Z,396.14
2023-02-11T05:25:11.863Z,375.00
2023-02-11T05:26:11.846Z,355.43
2023-02-11T05:27:11.843Z,335.03
2023-02-11T05:28:11.900Z,319.32
2023-02-11T05:29:11.842Z,318.70
2023-02-11T05:30:11.849Z,324.39
2023-02-11T05:31:11.891Z,335.37
2023-02-11T05:32:11.794Z,347.86
2023-02-11T05:33:11.782Z,344.20
2023-02-11T05:34:11.904Z,347.49
2023-02-11T05:35:11.783Z,348.23
2023-02-11T05:36:11.757Z,342.40
2023-02-11T05:37:11.995Z,341.32
2023-02-11T05:38:11.779Z,342.04
2023-02-11T05:39:11.748Z,344.56
2023-02-11T05:40:11.737Z,344.93
2023-02-11T05:41:11.715Z,346.39
2023-02-11T05:42:11.718Z,340.61
2023-02-11T05:43:11.678Z,322.15
2023-02-11T05:44:11.714Z,312.00
2023-02-11T05:45:11.738Z,307.89
2023-02-11T05:46:11.712Z,306.45
2023-02-11T05:47:11.676Z,305.59
2023-02-11T05:48:11.670Z,304.73
2023-02-11T05:49:11.649Z,304.73
2023-02-11T05:50:11.701Z,303.32
2023-02-11T05:51:11.631Z,314.40
2023-02-11T05:52:11.606Z,332.98
2023-02-11T05:53:11.636Z,333.32
2023-02-11T05:54:11.597Z,323.75
2023-02-11T05:55:11.662Z,308.76
2023-02-11T05:56:11.698Z,299.43
2023-02-11T05:57:11.549Z,290.13
2023-02-11T05:58:11.556Z,275.23
2023-02-11T05:59:11.530Z,266.48
2023-02-11T06:00:11.533Z,278.04
2023-02-11T06:01:11.542Z,318.39
2023-02-11T06:02:11.532Z,361.72
2023-02-11T06:03:11.537Z,399.96
2023-02-11T06:04:11.482Z,431.39
2023-02-11T06:05:11.438Z,461.34
2023-02-11T06:06:11.411Z,473.17
2023-02-11T06:07:11.492Z,478.28
2023-02-11T06:08:11.395Z,469.16
2023-02-11T06:09:11.383Z,459.11
2023-02-11T06:10:11.373Z,429.99
2023-02-11T06:11:11.361Z,398.52
2023-02-11T06:12:11.370Z,368.24
2023-02-11T06:13:11.361Z,345.65
2023-02-11T06:14:11.324Z,324.71
2023-02-11T06:15:11.340Z,301.08
2023-02-11T06:16:11.381Z,274.53
2023-02-11T06:17:12.847Z,248.07
2023-02-11T06:18:11.311Z,227.21
2023-02-11T06:19:11.298Z,207.98
2023-02-11T06:20:11.293Z,184.31
2023-02-11T06:21:11.293Z,165.59
2023-02-11T06:22:11.276Z,151.14
2023-02-11T06:23:11.243Z,138.54
2023-02-11T06:24:11.244Z,125.85
2023-02-11T06:25:11.244Z,115.45
2023-02-11T06:26:11.323Z,105.02
2023-02-11T06:27:11.207Z,96.71
2023-02-11T06:28:11.230Z,91.71
2023-02-11T06:29:11.230Z,85.14
2023-02-11T06:30:11.176Z,78.99
2023-02-11T06:31:11.260Z,73.15
2023-02-11T06:32:24.585Z,68.79
2023-02-11T06:33:11.158Z,64.87
2023-02-11T06:34:11.149Z,61.92
2023-02-11T06:35:12.362Z,60.57
2023-02-11T06:36:11.122Z,58.48
2023-02-11T06:37:11.136Z,57.43
2023-02-11T06:38:11.128Z,56.92
2023-02-11T06:39:11.097Z,57.63
2023-02-11T06:40:11.129Z,57.99
2023-02-11T06:41:11.084Z,58.32
2023-02-11T06:42:11.068Z,58.77
2023-02-11T06:43:11.057Z,59.19
2023-02-11T06:44:11.060Z,58.52
2023-02-11T06:45:11.301Z,58.36
2023-02-11T06:46:11.057Z,58.28
2023-02-11T06:47:11.022Z,57.55
2023-02-11T06:48:11.011Z,56.76
2023-02-11T06:49:11.091Z,56.38
2023-02-11T06:50:11.000Z,58.24
2023-02-11T06:51:10.998Z,63.73
2023-02-11T06:52:10.964Z,73.73
2023-02-11T06:53:10.987Z,86.65
2023-02-11T06:54:10.942Z,95.44
2023-02-11T06:55:10.944Z,106.78
2023-02-11T06:56:10.976Z,111.73
2023-02-11T06:57:10.990Z,113.56
2023-02-11T06:58:10.945Z,114.89
2023-02-11T06:59:10.920Z,117.49
2023-02-11T07:00:10.896Z,120.73
2023-02-11T07:01:10.918Z,121.53
2023-02-11T07:02:11.024Z,123.88
2023-02-11T07:03:10.897Z,123.88
2023-02-11T07:04:10.883Z,127.59
2023-02-11T07:05:10.853Z,129.68
2023-02-11T07:06:10.859Z,130.39
2023-02-11T07:07:10.830Z,133.00
2023-02-11T07:08:10.823Z,136.38
2023-02-11T07:09:10.813Z,144.57
2023-02-11T07:10:10.842Z,159.24
2023-02-11T07:11:10.803Z,175.37
2023-02-11T07:12:10.832Z,191.20
2023-02-11T07:13:10.773Z,203.32
2023-02-11T07:14:10.764Z,215.52
2023-02-11T07:15:10.784Z,229.93
2023-02-11T07:16:10.779Z,242.91
2023-02-11T07:17:10.797Z,256.64
2023-02-11T07:18:13.067Z,273.16
2023-02-11T07:19:10.722Z,292.46
2023-02-11T07:20:10.699Z,307.31
2023-02-11T07:21:10.749Z,325.03
2023-02-11T07:22:10.769Z,332.64
2023-02-11T07:23:10.772Z,330.96
2023-02-11T07:24:11.317Z,329.95
2023-02-11T07:25:10.661Z,325.36
2023-02-11T07:26:10.702Z,325.68
2023-02-11T07:27:10.648Z,319.94
2023-02-11T07:28:10.653Z,298.61
2023-02-11T07:29:10.641Z,267.57
2023-02-11T07:30:10.638Z,247.51
2023-02-11T07:31:10.775Z,231.72
2023-02-11T07:32:10.689Z,223.33
2023-02-11T07:33:10.593Z,217.68
2023-02-11T07:34:10.583Z,218.84
2023-02-11T07:35:10.640Z,217.10
2023-02-11T07:36:10.560Z,215.95
2023-02-11T07:37:10.561Z,225.18
2023-02-11T07:38:10.600Z,234.21
2023-02-11T07:39:10.537Z,236.75
2023-02-11T07:40:10.510Z,249.21
2023-02-11T07:41:10.567Z,262.20
2023-02-11T07:42:10.524Z,276.62
2023-02-11T07:43:10.512Z,288.34
2023-02-11T07:44:10.524Z,300.81
2023-02-11T07:45:10.491Z,299.70
2023-02-11T07:46:10.465Z,281.14
2023-02-11T07:47:10.539Z,262.83
2023-02-11T07:48:10.700Z,241.83
2023-02-11T07:49:10.426Z,218.84
2023-02-11T07:50:10.434Z,195.07
2023-02-11T07:51:10.418Z,177.43
2023-02-11T07:52:10.420Z,170.34
2023-02-11T07:53:10.421Z,180.51
2023-02-11T07:54:10.389Z,184.92
2023-02-11T07:55:10.399Z,197.19
2023-02-11T07:56:10.378Z,210.93
2023-02-11T07:57:10.348Z,217.97
2023-02-11T07:58:10.343Z,237.96
2023-02-11T07:59:10.403Z,263.26
2023-02-11T08:00:10.371Z,294.84
2023-02-11T08:01:10.380Z,324.39
2023-02-11T08:02:10.409Z,347.86
2023-02-11T08:03:10.286Z,368.65
2023-02-11T08:04:10.291Z,383.79
2023-02-11T08:05:10.273Z,402.63
2023-02-11T08:06:10.282Z,412.63
2023-02-11T08:07:10.350Z,426.13
2023-02-11T08:08:10.275Z,434.49
2023-02-11T08:09:10.263Z,428.60
2023-02-11T08:10:10.266Z,407.32
2023-02-11T08:11:10.232Z,368.65
2023-02-11T08:12:10.278Z,306.16
2023-02-11T08:13:10.226Z,264.96
2023-02-11T08:14:10.233Z,268.89
2023-02-11T08:15:10.222Z,294.57
2023-02-11T08:16:10.208Z,316.84
2023-02-11T08:17:10.340Z,335.72
2023-02-11T08:18:10.137Z,368.65
2023-02-11T08:19:10.154Z,399.48
2023-02-11T08:20:10.168Z,401.65
2023-02-11T08:21:10.110Z,416.51
2023-02-11T08:22:10.140Z,436.77
2023-02-11T08:23:10.285Z,435.06
2023-02-11T08:24:10.087Z,432.23
2023-02-11T08:25:10.083Z,425.04
2023-02-11T08:26:10.132Z,415.73
2023-02-11T08:27:10.103Z,410.08
2023-02-11T08:28:10.094Z,403.12
2023-02-11T08:29:10.086Z,412.12
2023-02-11T08:30:10.054Z,469.83
2023-02-11T08:31:10.107Z,526.83
2023-02-11T08:32:10.112Z,576.68
2023-02-11T08:33:09.992Z,606.70
2023-02-11T08:34:09.989Z,622.62
2023-02-11T08:35:09.999Z,638.78
2023-02-11T08:36:09.962Z,636.95
2023-02-11T08:37:10.159Z,594.22
2023-02-11T08:38:09.950Z,545.88
2023-02-11T08:39:19.089Z,523.92
2023-02-11T08:40:09.929Z,522.28
2023-02-11T08:41:09.918Z,520.64
2023-02-11T08:42:09.894Z,540.11
2023-02-11T08:43:09.946Z,546.33
2023-02-11T08:44:09.886Z,553.61
2023-02-11T08:45:09.918Z,579.19
2023-02-11T08:46:09.937Z,627.92
2023-02-11T08:47:09.867Z,687.01
2023-02-11T08:48:10.131Z,720.54
2023-02-11T08:49:09.832Z,764.81
2023-02-11T08:50:09.855Z,806.06
2023-02-11T08:51:09.801Z,828.14
2023-02-11T08:52:09.807Z,858.62
2023-02-11T08:53:09.804Z,882.55
2023-02-11T08:54:09.815Z,905.38
2023-02-11T08:55:09.876Z,930.72
2023-02-11T08:56:11.621Z,939.27
2023-02-11T08:57:09.771Z,913.46
2023-02-11T08:58:09.761Z,915.35
2023-02-11T08:59:09.924Z,910.96
2023-02-11T09:00:09.733Z,921.05
2023-02-11T09:01:09.802Z,952.04
2023-02-11T09:02:09.797Z,997.75
2023-02-11T09:03:09.695Z,1019.94
2023-02-11T09:04:09.680Z,1022.29
2023-02-11T09:05:09.685Z,1025.44
2023-02-11T09:06:09.664Z,1025.44
2023-02-11T09:07:09.671Z,991.06
2023-02-11T09:08:09.689Z,978.66
2023-02-11T09:09:09.656Z,948.64
2023-02-11T09:10:09.652Z,932.68
2023-02-11T09:11:09.668Z,914.09
2023-02-11T09:12:09.673Z,873.85
2023-02-11T09:13:09.590Z,803.14
2023-02-11T09:14:09.581Z,722.89
2023-02-11T09:15:09.640Z,658.41
2023-02-11T09:16:09.571Z,599.04
2023-02-11T09:17:09.676Z,549.04
2023-02-11T09:18:09.609Z,521.46
2023-02-11T09:19:09.534Z,486.69
2023-02-11T09:20:10.860Z,473.51
2023-02-11T09:21:09.522Z,469.83
2023-02-11T09:22:09.500Z,479.66
2023-02-11T09:23:09.501Z,495.40
2023-02-11T09:24:09.551Z,514.59
2023-02-11T09:25:09.473Z,524.75
2023-02-11T09:26:09.781Z,518.20
2023-02-11T09:27:09.482Z,521.46
2023-02-11T09:28:09.531Z,509.85
2023-02-11T09:29:09.451Z,505.20
2023-02-11T09:30:09.459Z,504.43
2023-02-11T09:31:09.596Z,509.85
2023-02-11T09:32:10.066Z,489.56
2023-02-11T09:33:09.404Z,485.62
2023-02-11T09:34:09.415Z,492.46
2023-02-11T09:35:09.418Z,521.87
2023-02-11T09:36:09.377Z,542.76
2023-02-11T09:37:09.478Z,583.26
2023-02-11T09:38:09.336Z,618.56
2023-02-11T09:39:09.343Z,650.67
2023-02-11T09:40:09.381Z,667.67
2023-02-11T09:41:09.377Z,669.02
2023-02-11T09:42:09.342Z,686.30
2023-02-11T09:43:09.465Z,684.18
2023-02-11T09:44:09.300Z,695.64
2023-02-11T09:45:09.270Z,709.00
2023-02-11T09:46:09.368Z,715.11
2023-02-11T09:47:09.281Z,749.29
2023-02-11T09:48:09.245Z,789.79
2023-02-11T09:49:09.336Z,812.46
2023-02-11T09:50:09.232Z,833.85
2023-02-11T09:51:09.239Z,885.49
2023-02-11T09:52:09.201Z,952.72
2023-02-11T09:53:09.358Z,983.00
2023-02-11T09:54:09.199Z,1033.41
2023-02-11T09:55:09.188Z,1037.44
2023-02-11T09:56:09.431Z,1035.02
2023-02-11T09:57:22.875Z,1039.06
2023-02-11T09:58:09.214Z,1043.96
2023-02-11T09:59:09.482Z,1066.56
2023-02-11T10:00:09.141Z,1082.18
2023-02-11T10:01:09.142Z,1078.67
2023-02-11T10:02:09.171Z,1104.65
2023-02-11T10:03:09.111Z,1101.91
2023-02-11T10:04:09.161Z,1104.65
2023-02-11T10:05:09.091Z,1120.47
2023-02-11T10:06:09.125Z,1136.75
2023-02-11T10:07:09.130Z,1120.47
2023-02-11T10:08:09.059Z,1112.04
2023-02-11T10:09:09.092Z,1101.91
2023-02-11T10:10:09.040Z,1050.55
2023-02-11T10:11:09.103Z,988.11
2023-02-11T10:12:09.061Z,960.29
2023-02-11T10:13:09.006Z,902.92
2023-02-11T10:14:09.190Z,835.95
2023-02-11T10:15:09.056Z,786.05
2023-02-11T10:16:09.030Z,756.11
2023-02-11T10:17:08.953Z,761.30
2023-02-11T10:18:08.956Z,766.57
2023-02-11T10:19:09.012Z,794.50
2023-02-11T10:20:08.933Z,832.29
2023-02-11T10:21:08.937Z,855.85
2023-02-11T10:22:08.905Z,869.85
2023-02-11T10:23:08.918Z,853.11
2023-02-11T10:24:08.890Z,865.32
2023-02-11T10:25:08.952Z,883.72
2023-02-11T10:26:08.868Z,907.85
2023-02-11T10:27:08.864Z,928.12
2023-02-11T10:28:08.899Z,943.93
2023-02-11T10:29:08.891Z,947.97
2023-02-11T10:30:08.840Z,945.27
2023-02-11T10:31:08.925Z,942.59
2023-02-11T10:32:08.849Z,947.97
2023-02-11T10:33:08.800Z,924.25
2023-02-11T10:34:08.797Z,887.26
2023-02-11T10:35:09.173Z,876.73
2023-02-11T10:36:08.778Z,863.08
2023-02-11T10:37:08.823Z,857.51
2023-02-11T10:38:08.747Z,837.53
2023-02-11T10:39:08.772Z,820.48
2023-02-11T10:40:08.732Z,811.47
2023-02-11T10:41:08.828Z,830.73
2023-02-11T10:42:08.713Z,873.28
2023-02-11T10:43:08.741Z,904.15
2023-02-11T10:44:08.748Z,917.87
2023-02-11T10:45:08.695Z,939.93
2023-02-11T10:46:08.701Z,946.62
2023-02-11T10:47:08.683Z,954.77
2023-02-11T10:48:08.673Z,945.95
2023-02-11T10:49:08.665Z,939.27
2023-02-11T10:50:08.686Z,947.97
2023-02-11T10:51:08.652Z,955.46
2023-02-11T10:52:09.588Z,967.27
2023-02-11T10:53:09.766Z,976.51
2023-02-11T10:54:08.634Z,983.73
2023-02-11T10:55:08.582Z,1005.29
2023-02-11T10:56:08.671Z,1033.41
2023-02-11T10:57:08.570Z,1035.02
2023-02-11T10:58:08.560Z,1036.63
2023-02-11T10:59:08.543Z,1048.07
2023-02-11T11:00:08.545Z,1041.50
2023-02-11T11:01:23.479Z,1023.08
2023-02-11T11:02:09.533Z,999.25
2023-02-11T11:03:08.511Z,988.85
2023-02-11T11:04:08.513Z,981.55
2023-02-11T11:05:08.533Z,954.09
2023-02-11T11:06:08.487Z,951.36
2023-02-11T11:07:08.538Z,967.27
2023-02-11T11:08:08.471Z,989.58
2023-02-11T11:09:08.440Z,1004.53
2023-02-11T11:10:08.442Z,1027.82
2023-02-11T11:11:08.492Z,1083.06
2023-02-11T11:12:08.431Z,1110.18
2023-02-11T11:13:08.430Z,1118.59
2023-02-11T11:14:08.395Z,1127.12
2023-02-11T11:15:08.361Z,1107.41
2023-02-11T11:16:08.525Z,1104.65
2023-02-11T11:17:08.351Z,1138.70
2023-02-11T11:18:20.851Z,1184.33
2023-02-11T11:19:08.351Z,1185.38
2023-02-11T11:20:08.320Z,1175.95
2023-02-11T11:21:08.318Z,1228.07
2023-02-11T11:22:08.292Z,1246.48
2023-02-11T11:23:08.375Z,1287.51
2023-02-11T11:24:08.340Z,1310.34
2023-02-11T11:25:08.338Z,1310.34
2023-02-11T11:26:08.311Z,1320.75
2023-02-11T11:27:08.247Z,1346.15
2023-02-11T11:28:08.292Z,1386.86
2023-02-11T11:29:08.223Z,1428.57
2023-02-11T11:30:08.330Z,1479.42
2023-02-11T11:31:08.333Z,1494.38
2023-02-11T11:32:08.390Z,1516.53
2023-02-11T11:33:08.180Z,1496.90
2023-02-11T11:34:08.174Z,1502.82
2023-02-11T11:35:08.157Z,1560.12
2023-02-11T11:36:08.224Z,1559.20
2023-02-11T11:37:08.130Z,1564.71
2023-02-11T11:38:08.123Z,1624.92
2023-02-11T11:39:08.118Z,1636.92
2023-02-11T11:40:08.145Z,1659.39
2023-02-11T11:41:08.102Z,1612.12
2023-02-11T11:42:08.716Z,1573.96
2023-02-11T11:43:08.464Z,1596.64
2023-02-11T11:44:08.188Z,1611.14
2023-02-11T11:45:08.112Z,1669.81
2023-02-11T11:46:09.054Z,1718.35
2023-02-11T11:47:08.152Z,1746.55
2023-02-11T11:48:08.035Z,1744.26
2023-02-11T11:49:08.156Z,1796.08
2023-02-11T11:50:08.148Z,1823.17
2023-02-11T11:51:08.022Z,1798.51
2023-02-11T11:52:08.634Z,1799.73
2023-02-11T11:53:08.003Z,1796.08
2023-02-11T11:54:08.041Z,1755.78
2023-02-11T11:55:07.982Z,1821.92
2023-02-11T11:56:08.060Z,1878.53
2023-02-11T11:57:08.399Z,1828.18
2023-02-11T11:58:07.937Z,1838.29
2023-02-11T11:59:07.963Z,1931.73
2023-02-11T12:00:07.925Z,1966.00
2023-02-11T12:01:08.095Z,2033.64
2023-02-11T12:02:08.680Z,2046.15
2023-02-11T12:03:08.079Z,2070.04
2023-02-11T12:04:07.875Z,1998.50
2023-02-11T12:05:07.868Z,1994.00
2023-02-11T12:06:08.859Z,1970.37
2023-02-11T12:07:07.855Z,1980.64
2023-02-11T12:08:07.872Z,1998.50
2023-02-11T12:09:08.173Z,2006.03
2023-02-11T12:10:08.362Z,1943.02
2023-02-11T12:11:07.964Z,1973.29
2023-02-11T12:12:07.839Z,2013.63
2023-02-11T12:13:07.858Z,2036.75
2023-02-11T12:14:08.263Z,2030.53
2023-02-11T12:15:07.867Z,2010.58
2023-02-11T12:16:07.887Z,1951.58
2023-02-11T12:17:07.986Z,1906.81
2023-02-11T12:18:07.945Z,1958.76
2023-02-11T12:19:07.810Z,1938.78
2023-02-11T12:20:08.372Z,1878.53
2023-02-11T12:21:07.829Z,1883.85
2023-02-11T12:22:07.758Z,1934.55
2023-02-11T12:23:07.762Z,1848.51
2023-02-11T12:24:07.679Z,1793.66
2023-02-11T12:25:07.755Z,1775.70
2023-02-11T12:26:07.712Z,1768.62
2023-02-11T12:27:07.772Z,1767.44
2023-02-11T12:28:07.708Z,1858.84
2023-02-11T12:29:07.657Z,1831.96